createdAt,value
2023-05-08T00:00:58.041Z,12.85
2023-05-08T00:03:45.438Z,14.35
2023-05-08T00:06:32.757Z,17.13
2023-05-08T00:09:21.406Z,15.30
2023-05-08T00:12:08.913Z,14.43
2023-05-08T00:14:56.220Z,14.30
2023-05-08T00:17:43.435Z,11.88
2023-05-08T00:20:30.753Z,12.02
2023-05-08T00:23:17.902Z,12.75
2023-05-08T00:26:05.234Z,10.88
2023-05-08T00:28:52.498Z,11.15
2023-05-08T00:31:39.884Z,10.63
2023-05-08T00:34:27.104Z,10.10
2023-05-08T00:37:14.329Z,10.45
2023-05-08T00:40:01.649Z,12.27
2023-05-08T00:42:48.847Z,11.38
2023-05-08T00:45:37.991Z,11.95
2023-05-08T00:48:27.951Z,13.02
2023-05-08T00:51:16.343Z,12.10
2023-05-08T00:54:03.924Z,13.10
2023-05-08T00:56:53.171Z,10.98
2023-05-08T00:59:41.856Z,10.50
2023-05-08T01:02:31.763Z,11.65
2023-05-08T01:05:19.208Z,14.68
2023-05-08T01:08:06.658Z,11.50
2023-05-08T01:11:27.845Z,11.52
2023-05-08T01:14:19.499Z,10.95
2023-05-08T01:17:11.774Z,11.15
2023-05-08T01:20:20.695Z,12.13
2023-05-08T01:23:16.522Z,10.15
2023-05-08T01:26:15.897Z,9.32
2023-05-08T01:29:27.821Z,12.68
2023-05-08T01:32:20.970Z,8.68
2023-05-08T01:35:17.203Z,8.70
2023-05-08T01:38:14.010Z,8.85
2023-05-08T01:41:10.614Z,9.70
2023-05-08T01:44:18.186Z,10.90
2023-05-08T01:47:11.659Z,10.70
2023-05-08T01:50:22.346Z,12.05
2023-05-08T01:53:23.087Z,11.30
2023-05-08T01:56:17.243Z,13.95
2023-05-08T01:59:06.821Z,12.70
2023-05-08T02:01:57.234Z,15.30
2023-05-08T02:04:45.556Z,12.82
2023-05-08T02:07:35.259Z,17.90
2023-05-08T02:10:25.345Z,15.00
2023-05-08T02:13:14.628Z,16.45
2023-05-08T02:16:03.256Z,23.02
2023-05-08T02:18:54.029Z,23.00
2023-05-08T02:21:41.861Z,18.67
2023-05-08T02:24:32.264Z,32.00
2023-05-08T02:27:22.241Z,30.85
2023-05-08T02:30:11.742Z,25.08
2023-05-08T02:33:01.096Z,26.20
2023-05-08T02:35:50.882Z,28.50
2023-05-08T02:38:39.830Z,27.77
2023-05-08T02:41:31.123Z,32.95
2023-05-08T02:44:18.974Z,39.13
2023-05-08T02:47:18.045Z,41.22
2023-05-08T02:50:15.006Z,48.80
2023-05-08T02:53:09.402Z,51.97
2023-05-08T02:56:02.411Z,57.38
2023-05-08T02:58:57.984Z,57.17
2023-05-08T03:02:00.066Z,57.28
2023-05-08T03:04:53.561Z,56.65
2023-05-08T03:07:42.724Z,65.68
2023-05-08T03:10:33.829Z,65.05
2023-05-08T03:13:21.562Z,66.35
2023-05-08T03:16:15.200Z,64.35
2023-05-08T03:19:07.574Z,63.75
2023-05-08T03:21:56.036Z,62.63
2023-05-08T03:24:44.298Z,61.20
2023-05-08T03:27:33.213Z,71.45
2023-05-08T03:30:21.229Z,71.20
2023-05-08T03:33:09.442Z,68.68
2023-05-08T03:35:57.719Z,73.47
2023-05-08T03:38:45.450Z,71.90
2023-05-08T03:41:32.683Z,72.68
2023-05-08T03:44:20.631Z,75.20
2023-05-08T03:47:08.789Z,75.72
2023-05-08T03:49:57.442Z,72.97
2023-05-08T03:52:44.781Z,77.68
2023-05-08T03:55:32.401Z,77.10
2023-05-08T03:58:29.304Z,74.88
2023-05-08T04:01:42.545Z,78.75
2023-05-08T04:04:41.332Z,79.10
2023-05-08T04:07:37.719Z,77.10
2023-05-08T04:10:32.646Z,79.50
2023-05-08T04:13:26.028Z,79.82
2023-05-08T04:16:21.721Z,80.60
2023-05-08T04:19:18.389Z,84.55
2023-05-08T04:22:08.121Z,84.93
2023-05-08T04:24:58.633Z,85.95
2023-05-08T04:27:46.656Z,82.15
2023-05-08T04:30:33.964Z,89.70
2023-05-08T04:33:21.785Z,77.65
2023-05-08T04:36:13.383Z,86.15
2023-05-08T04:39:00.779Z,80.00
2023-05-08T04:41:48.918Z,85.38
2023-05-08T04:44:36.212Z,93.30
2023-05-08T04:47:24.271Z,97.85
2023-05-08T04:50:12.267Z,92.50
2023-05-08T04:52:59.450Z,90.68
2023-05-08T04:55:46.678Z,90.57
2023-05-08T04:58:33.904Z,87.32
2023-05-08T05:01:21.160Z,87.43
2023-05-08T05:04:08.603Z,74.22
2023-05-08T05:06:56.013Z,84.28
2023-05-08T05:09:43.319Z,75.90
2023-05-08T05:12:30.523Z,76.88
2023-05-08T05:15:17.770Z,85.93
2023-05-08T05:18:05.044Z,84.63
2023-05-08T05:20:52.429Z,78.95
2023-05-08T05:23:39.649Z,82.47
2023-05-08T05:26:26.869Z,75.60
2023-05-08T05:29:14.137Z,85.55
2023-05-08T05:32:02.322Z,77.00
2023-05-08T05:34:49.672Z,82.00
2023-05-08T05:37:37.345Z,83.53
2023-05-08T05:40:24.561Z,81.97
2023-05-08T05:43:11.931Z,86.78
2023-05-08T05:46:06.520Z,89.88
2023-05-08T05:48:54.028Z,90.20
2023-05-08T05:51:41.741Z,86.45
2023-05-08T05:54:28.909Z,85.28
2023-05-08T05:57:16.202Z,90.43
2023-05-08T06:00:04.903Z,90.57
2023-05-08T06:02:52.165Z,92.20
2023-05-08T06:05:40.490Z,86.78
2023-05-08T06:08:27.766Z,83.90
2023-05-08T06:11:14.916Z,86.95
2023-05-08T06:14:02.175Z,83.00
2023-05-08T06:16:49.537Z,87.70
2023-05-08T06:19:36.915Z,89.18
2023-05-08T06:22:24.580Z,96.55
2023-05-08T06:25:12.117Z,93.65
2023-05-08T06:27:59.794Z,94.68
2023-05-08T06:30:47.186Z,98.15
2023-05-08T06:33:34.423Z,93.03
2023-05-08T06:36:21.626Z,98.93
2023-05-08T06:39:09.140Z,98.28
2023-05-08T06:41:56.353Z,100.38
2023-05-08T06:44:43.525Z,96.13
2023-05-08T06:47:30.878Z,99.60
2023-05-08T06:50:18.124Z,99.30
2023-05-08T06:53:05.566Z,91.97
2023-05-08T06:55:52.922Z,93.90
2023-05-08T06:58:40.099Z,95.78
2023-05-08T07:01:27.723Z,88.38
2023-05-08T07:04:15.080Z,88.50
2023-05-08T07:07:02.505Z,89.30
2023-05-08T07:09:49.700Z,83.93
2023-05-08T07:12:36.926Z,91.07
2023-05-08T07:15:26.580Z,82.72
2023-05-08T07:18:14.238Z,85.53
2023-05-08T07:21:01.433Z,91.30
2023-05-08T07:23:51.642Z,89.97
2023-05-08T07:26:38.930Z,84.50
2023-05-08T07:29:27.128Z,90.18
2023-05-08T07:32:15.326Z,87.55
2023-05-08T07:35:03.807Z,87.65
2023-05-08T07:37:51.103Z,91.65
2023-05-08T07:40:38.263Z,89.60
2023-05-08T07:43:25.511Z,83.50
2023-05-08T07:46:19.106Z,89.70
2023-05-08T07:49:06.425Z,86.07
2023-05-08T07:51:53.622Z,87.53
2023-05-08T07:54:40.776Z,95.82
2023-05-08T07:57:27.998Z,82.43
2023-05-08T08:00:16.609Z,87.60
2023-05-08T08:03:04.228Z,98.63
2023-05-08T08:05:51.492Z,90.22
2023-05-08T08:08:39.183Z,96.00
2023-05-08T08:11:26.410Z,91.93
2023-05-08T08:14:13.536Z,86.68
2023-05-08T08:17:00.786Z,79.60
2023-05-08T08:19:48.094Z,84.38
2023-05-08T08:22:37.407Z,76.45
2023-05-08T08:25:24.670Z,84.72
2023-05-08T08:28:11.934Z,84.20
2023-05-08T08:30:59.140Z,91.43
2023-05-08T08:33:46.757Z,88.35
2023-05-08T08:36:34.512Z,86.57
2023-05-08T08:39:23.060Z,92.07
2023-05-08T08:42:10.252Z,78.38
2023-05-08T08:44:57.564Z,92.07
2023-05-08T08:47:46.286Z,87.63
2023-05-08T08:50:33.933Z,93.75
2023-05-08T08:53:30.926Z,85.85
2023-05-08T08:56:21.395Z,93.78
2023-05-08T08:59:09.236Z,103.20
2023-05-08T09:02:06.587Z,95.80
2023-05-08T09:04:54.159Z,99.70
2023-05-08T09:07:43.853Z,99.03
2023-05-08T09:10:31.138Z,95.50
2023-05-08T09:13:19.782Z,92.13
2023-05-08T09:16:07.629Z,97.10
2023-05-08T09:18:54.849Z,88.78
2023-05-08T09:21:42.747Z,85.53
2023-05-08T09:24:58.828Z,79.72
2023-05-08T09:27:46.199Z,84.18
2023-05-08T09:30:50.544Z,81.90
2023-05-08T09:33:44.805Z,87.63
2023-05-08T09:36:32.112Z,79.20
2023-05-08T09:39:26.377Z,85.20
2023-05-08T09:42:14.213Z,77.65
2023-05-08T09:45:01.469Z,79.07
2023-05-08T09:47:48.884Z,69.50
2023-05-08T09:50:36.221Z,63.25
2023-05-08T09:53:31.827Z,58.88
2023-05-08T09:56:38.929Z,63.30
2023-05-08T09:59:33.982Z,63.85
2023-05-08T10:02:21.621Z,53.40
2023-05-08T10:05:30.200Z,49.28
2023-05-08T10:08:19.676Z,40.90
2023-05-08T10:11:17.811Z,41.50
2023-05-08T10:14:05.248Z,35.45
2023-05-08T10:16:54.445Z,38.70
2023-05-08T10:19:46.096Z,35.90
2023-05-08T10:22:37.496Z,35.45
2023-05-08T10:25:25.779Z,34.60
2023-05-08T10:28:24.456Z,28.90
2023-05-08T10:31:14.971Z,31.38
2023-05-08T10:34:04.621Z,30.52
2023-05-08T10:36:54.192Z,29.35
2023-05-08T10:39:43.136Z,32.63
2023-05-08T10:42:31.220Z,30.35
2023-05-08T10:45:18.984Z,31.42
2023-05-08T10:48:13.862Z,30.45
2023-05-08T10:51:13.761Z,26.38
2023-05-08T10:54:19.393Z,26.27
2023-05-08T10:57:12.938Z,26.33
2023-05-08T11:00:00.233Z,24.48
2023-05-08T11:02:49.110Z,26.45
2023-05-08T11:05:49.155Z,24.30
2023-05-08T11:08:46.765Z,22.58
2023-05-08T11:11:39.301Z,27.13
2023-05-08T11:14:28.530Z,22.48
2023-05-08T11:17:24.348Z,26.40
2023-05-08T11:20:11.991Z,29.02
2023-05-08T11:23:22.902Z,27.95
2023-05-08T11:26:14.979Z,30.88
2023-05-08T11:29:02.188Z,26.83
2023-05-08T11:31:50.968Z,27.88
2023-05-08T11:34:44.275Z,25.70
2023-05-08T11:37:34.143Z,25.75
2023-05-08T11:41:00.886Z,23.13
2023-05-08T11:44:09.663Z,24.23
2023-05-08T11:46:58.061Z,25.88
2023-05-08T11:49:45.300Z,24.95
2023-05-08T11:52:34.693Z,24.58
2023-05-08T11:55:22.401Z,21.85
2023-05-08T11:58:13.497Z,20.45
2023-05-08T12:01:00.866Z,22.08
2023-05-08T12:03:48.109Z,19.05
2023-05-08T12:06:38.051Z,17.63
2023-05-08T12:09:25.387Z,18.65
2023-05-08T12:12:12.567Z,17.13
2023-05-08T12:14:59.702Z,19.85
2023-05-08T12:17:47.198Z,18.10
2023-05-08T12:20:34.429Z,14.85
2023-05-08T12:23:21.710Z,15.90
2023-05-08T12:26:08.962Z,16.77
2023-05-08T12:28:57.037Z,15.02
2023-05-08T12:31:44.397Z,18.40
2023-05-08T12:34:31.739Z,17.95
2023-05-08T12:37:27.860Z,19.17
2023-05-08T12:40:31.913Z,17.95
2023-05-08T12:43:19.224Z,17.45
2023-05-08T12:46:11.410Z,20.85
2023-05-08T12:49:04.476Z,19.17
2023-05-08T12:51:52.860Z,20.30
2023-05-08T12:54:46.184Z,19.05
2023-05-08T12:57:36.857Z,16.48
2023-05-08T13:00:24.114Z,17.13
2023-05-08T13:03:27.765Z,16.60
2023-05-08T13:06:22.178Z,17.17
2023-05-08T13:09:09.396Z,15.77
2023-05-08T13:11:56.816Z,21.58
2023-05-08T13:14:44.009Z,17.55
2023-05-08T13:17:31.239Z,19.10
2023-05-08T13:20:18.420Z,18.60
2023-05-08T13:23:06.294Z,20.90
2023-05-08T13:25:53.588Z,18.40
2023-05-08T13:28:40.786Z,20.88
2023-05-08T13:31:28.060Z,23.20
2023-05-08T13:34:15.255Z,22.58
2023-05-08T13:37:02.575Z,24.75
2023-05-08T13:39:49.824Z,25.10
2023-05-08T13:42:37.440Z,25.13
2023-05-08T13:45:24.657Z,23.10
2023-05-08T13:48:11.947Z,24.05
2023-05-08T13:50:59.154Z,24.70
2023-05-08T13:53:46.482Z,23.38
2023-05-08T13:56:33.719Z,24.08
2023-05-08T13:59:21.067Z,25.17
2023-05-08T14:02:08.441Z,26.35
2023-05-08T14:04:55.729Z,23.60
2023-05-08T14:07:43.893Z,24.48
2023-05-08T14:10:31.200Z,28.83
2023-05-08T14:13:18.417Z,27.88
2023-05-08T14:16:08.207Z,27.00
2023-05-08T14:18:55.964Z,28.45
2023-05-08T14:21:45.034Z,27.45
2023-05-08T14:24:32.302Z,31.13
2023-05-08T14:27:19.567Z,30.88
2023-05-08T14:30:07.479Z,30.35
2023-05-08T14:32:54.721Z,29.50
2023-05-08T14:35:43.306Z,30.25
2023-05-08T14:38:30.819Z,31.10
2023-05-08T14:41:18.052Z,30.05
2023-05-08T14:44:05.382Z,27.42
2023-05-08T14:46:52.542Z,34.47
2023-05-08T14:49:39.736Z,26.30
2023-05-08T14:52:27.017Z,26.30
2023-05-08T14:58:27.381Z,29.40
2023-05-08T15:01:14.616Z,27.45
2023-05-08T15:04:02.036Z,27.20
2023-05-08T15:06:49.392Z,25.95
2023-05-08T15:09:36.789Z,27.08
2023-05-08T15:12:26.117Z,26.10
2023-05-08T15:15:13.547Z,26.83
2023-05-08T15:18:00.927Z,25.75
2023-05-08T15:20:48.181Z,22.75
2023-05-08T15:23:35.464Z,23.42
2023-05-08T15:26:23.279Z,21.15
2023-05-08T15:29:10.537Z,22.67
2023-05-08T15:31:57.833Z,20.52
2023-05-08T15:34:45.027Z,19.75
2023-05-08T15:37:32.265Z,18.05
2023-05-08T15:40:19.589Z,16.88
2023-05-08T15:43:07.023Z,17.75
2023-05-08T15:45:54.335Z,18.85
2023-05-08T15:48:41.489Z,18.02
2023-05-08T15:51:29.012Z,17.90
2023-05-08T15:54:16.202Z,17.80
2023-05-08T15:57:03.471Z,15.95
2023-05-08T15:59:50.796Z,16.08
2023-05-08T16:02:38.043Z,14.82
2023-05-08T16:05:25.870Z,14.27
2023-05-08T16:08:13.856Z,14.25
2023-05-08T16:11:01.799Z,14.85
2023-05-08T16:13:49.008Z,14.52
2023-05-08T16:16:37.853Z,14.10
2023-05-08T16:19:25.248Z,14.38
2023-05-08T16:22:12.490Z,14.50
2023-05-08T16:24:59.656Z,12.55
2023-05-08T16:27:46.925Z,13.38
2023-05-08T16:30:34.167Z,11.10
2023-05-08T16:33:21.358Z,9.70
2023-05-08T16:36:08.923Z,10.20
2023-05-08T16:38:56.100Z,10.40
2023-05-08T16:41:43.486Z,10.27
2023-05-08T16:44:30.780Z,11.93
2023-05-08T16:47:17.950Z,11.13
2023-05-08T16:50:05.772Z,10.43
2023-05-08T16:52:52.953Z,12.32
2023-05-08T16:55:40.188Z,10.75
2023-05-08T16:58:27.881Z,10.68
2023-05-08T17:01:15.080Z,10.63
2023-05-08T17:04:02.246Z,9.88
2023-05-08T17:06:49.423Z,9.63
2023-05-08T17:09:36.651Z,10.68
2023-05-08T17:12:24.794Z,10.40
2023-05-08T17:15:12.229Z,12.50
2023-05-08T17:17:59.667Z,10.57
2023-05-08T17:20:46.926Z,10.18
2023-05-08T17:23:34.116Z,12.15
2023-05-08T17:26:22.966Z,11.15
2023-05-08T17:29:10.348Z,10.35
2023-05-08T17:31:57.563Z,9.52
2023-05-08T17:34:46.176Z,11.00
2023-05-08T17:37:33.364Z,11.55
2023-05-08T17:40:20.556Z,9.93
2023-05-08T17:43:10.999Z,11.07
2023-05-08T17:45:58.234Z,11.18
2023-05-08T17:48:45.437Z,10.88
2023-05-08T17:51:32.863Z,14.27
2023-05-08T17:54:19.960Z,12.77
2023-05-08T17:57:07.187Z,11.50
2023-05-08T17:59:54.432Z,12.10
2023-05-08T18:02:41.787Z,82.25
2023-05-08T18:05:30.503Z,74.93
2023-05-08T18:08:17.708Z,29.75
2023-05-08T18:11:04.940Z,13.85
2023-05-08T18:13:55.635Z,11.43
2023-05-08T18:16:42.831Z,8.90
2023-05-08T18:19:30.070Z,10.68
2023-05-08T18:22:22.296Z,9.38
2023-05-08T18:25:09.822Z,10.27
2023-05-08T18:27:58.868Z,11.88
2023-05-08T18:30:46.150Z,9.85
2023-05-08T18:33:33.410Z,9.60
2023-05-08T18:36:20.638Z,9.90
2023-05-08T18:39:07.830Z,12.05
2023-05-08T18:41:55.050Z,9.88
2023-05-08T18:44:42.388Z,9.43
2023-05-08T18:47:29.747Z,9.45
2023-05-08T18:50:17.512Z,9.07
2023-05-08T18:53:04.804Z,9.00
2023-05-08T18:55:52.946Z,9.13
2023-05-08T18:58:40.395Z,8.98
2023-05-08T19:01:27.620Z,8.75
2023-05-08T19:04:14.907Z,10.40
2023-05-08T19:07:02.155Z,10.20
2023-05-08T19:09:49.381Z,9.40
2023-05-08T19:12:36.593Z,10.27
2023-05-08T19:15:23.821Z,8.77
2023-05-08T19:18:11.080Z,10.82
2023-05-08T19:20:58.403Z,10.82
2023-05-08T19:23:45.775Z,9.50
2023-05-08T19:26:33.126Z,10.38
2023-05-08T19:29:20.521Z,9.98
2023-05-08T19:32:07.984Z,10.88
2023-05-08T19:34:57.401Z,11.20
2023-05-08T19:37:45.146Z,11.10
2023-05-08T19:40:33.126Z,11.52
2023-05-08T19:43:26.839Z,12.75
2023-05-08T19:46:14.286Z,13.52
2023-05-08T19:49:01.743Z,13.20
2023-05-08T19:51:49.520Z,12.35
2023-05-08T19:54:36.785Z,13.40
2023-05-08T19:57:24.062Z,14.02
2023-05-08T20:00:12.398Z,12.50
2023-05-08T20:02:59.953Z,14.00
2023-05-08T20:05:47.278Z,12.02
2023-05-08T20:08:34.567Z,11.82
2023-05-08T20:11:22.123Z,11.00
2023-05-08T20:14:09.327Z,12.02
2023-05-08T20:16:56.561Z,11.95
2023-05-08T20:19:44.014Z,12.75
2023-05-08T20:22:31.404Z,12.45
2023-05-08T20:25:18.948Z,13.40
2023-05-08T20:28:06.236Z,14.45
2023-05-08T20:30:53.694Z,14.07
2023-05-08T20:33:41.053Z,12.40
2023-05-08T20:36:28.362Z,12.38
2023-05-08T20:39:15.783Z,14.15
2023-05-08T20:42:03.051Z,13.13
2023-05-08T20:44:50.383Z,15.50
2023-05-08T20:47:37.731Z,14.10
2023-05-08T20:50:25.092Z,15.90
2023-05-08T20:53:12.347Z,15.98
2023-05-08T20:56:03.972Z,16.25
2023-05-08T20:58:51.247Z,19.00
2023-05-08T21:04:25.990Z,19.42
2023-05-08T21:07:13.268Z,16.63
2023-05-08T21:10:00.588Z,18.83
2023-05-08T21:12:47.753Z,19.40
2023-05-08T21:15:35.130Z,19.00
2023-05-08T21:18:22.385Z,18.02
2023-05-08T21:21:20.088Z,20.58
2023-05-08T21:24:07.343Z,20.60
2023-05-08T21:26:54.649Z,21.90
2023-05-08T21:29:41.867Z,17.98
2023-05-08T21:32:29.089Z,19.23
2023-05-08T21:35:16.599Z,20.02
2023-05-08T21:38:05.740Z,20.90
2023-05-08T21:40:53.744Z,19.65
2023-05-08T21:43:41.146Z,18.73
2023-05-08T21:46:28.469Z,17.55
2023-05-08T21:49:15.742Z,18.25
2023-05-08T21:52:02.985Z,18.55
2023-05-08T21:54:50.529Z,18.35
2023-05-08T21:57:38.380Z,18.27
2023-05-08T22:00:27.067Z,16.45
2023-05-08T22:03:14.641Z,15.35
2023-05-08T22:06:01.995Z,16.15
2023-05-08T22:08:49.138Z,15.57
2023-05-08T22:11:36.303Z,14.80
2023-05-08T22:14:23.575Z,15.10
2023-05-08T22:17:10.858Z,16.17
2023-05-08T22:19:58.089Z,13.98
2023-05-08T22:22:45.891Z,12.00
2023-05-08T22:25:33.099Z,9.70
2023-05-08T22:28:20.235Z,10.95
2023-05-08T22:31:07.610Z,10.13
2023-05-08T22:33:54.819Z,9.40
2023-05-08T22:36:42.099Z,7.90
2023-05-08T22:39:29.258Z,12.10
2023-05-08T22:42:16.765Z,8.68
2023-05-08T22:45:04.527Z,10.88
2023-05-08T22:47:51.879Z,8.82
2023-05-08T22:50:39.140Z,8.30
2023-05-08T22:53:26.334Z,8.60
2023-05-08T22:56:13.505Z,6.93
2023-05-08T22:59:00.733Z,7.43
2023-05-08T23:01:47.904Z,8.18
2023-05-08T23:04:35.594Z,8.43
2023-05-08T23:07:22.792Z,9.75
2023-05-08T23:10:10.555Z,8.98
2023-05-08T23:12:57.787Z,7.38
2023-05-08T23:15:45.043Z,6.95
2023-05-08T23:18:34.076Z,8.27
2023-05-08T23:21:21.407Z,7.70
2023-05-08T23:24:08.690Z,9.68
2023-05-08T23:26:55.852Z,6.82
2023-05-08T23:29:43.073Z,6.90
2023-05-08T23:32:30.272Z,7.10
2023-05-08T23:35:17.652Z,7.63
2023-05-08T23:38:04.844Z,7.45
2023-05-08T23:40:52.320Z,7.03
2023-05-08T23:43:39.687Z,6.70
2023-05-08T23:46:26.877Z,8.50
2023-05-08T23:49:14.127Z,8.57
2023-05-08T23:52:01.323Z,7.07
2023-05-08T23:54:48.756Z,7.65
2023-05-08T23:57:36.105Z,7.38
